| time (UTC) | temp F | wind direction | speed knots | gust knots | rain 1hr in | rain 24hr in | rain mn in | humidity % | barometer mb |
| 20260510021553 | 50 | 195 | 0.9 | 3.5 | 0.00 | 0.17 | 0.17 | 93 | 1005.8 |
| 20260510020052 | 51 | 182 | 0.0 | 6.1 | 0.00 | 0.17 | 0.17 | 93 | 1005.6 |
| 20260510014552 | 51 | 281 | 1.7 | 5.2 | 0.00 | 0.17 | 0.17 | 93 | 1005.7 |
| 20260510013101 | 51 | 246 | 2.6 | 7.0 | 0.00 | 0.17 | 0.17 | 93 | 1005.4 |
| 20260510011549 | 51 | 190 | 3.5 | 9.6 | 0.00 | 0.17 | 0.17 | 93 | 1005.2 |
| 20260510010048 | 50 | 181 | 2.6 | 10.4 | 0.00 | 0.17 | 0.17 | 93 | 1005.2 |
| 20260510004547 | 50 | 233 | 2.6 | 9.6 | 0.00 | 0.17 | 0.17 | 93 | 1005.0 |
| 20260510003050 | 51 | 197 | 1.7 | 6.1 | 0.00 | 0.17 | 0.17 | 93 | 1004.6 |
| 20260510001547 | 51 | 185 | 0.0 | 5.2 | 0.04 | 0.17 | 0.17 | 93 | 1004.5 |
| 20260510000046 | 51 | 146 | 1.7 | 7.8 | 0.07 | 0.17 | 0.17 | 93 | 1004.5 |
| 20260509234546 | 51 | 159 | 0.9 | 6.1 | 0.12 | 0.17 | 0.17 | 92 | 1004.6 |
| 20260509233045 | 51 | 259 | 0.9 | 4.3 | 0.16 | 0.17 | 0.17 | 91 | 1004.4 |
| 20260509231554 | 51 | 267 | 1.7 | 7.8 | 0.13 | 0.13 | 0.13 | 90 | 1005.2 |
| 20260509230044 | 52 | 253 | 2.6 | 14.8 | 0.10 | 0.10 | 0.10 | 87 | 1005.4 |
| 20260509224546 | 56 | 329 | 6.1 | 20.0 | 0.04 | 0.04 | 0.04 | 85 | 1005.7 |
| 20260509223045 | 58 | 142 | 2.6 | 4.3 | 0.01 | 0.01 | 0.01 | 82 | 1003.3 |
| 20260509221543 | 59 | 190 | 2.6 | 5.2 | 0.00 | 0.00 | 0.00 | 77 | 1002.9 |
| 20260509220045 | 60 | 219 | 0.9 | 1.7 | 0.00 | 0.00 | 0.00 | 78 | 1002.4 |
| 20260509214540 | 60 | 219 | 0.9 | 2.6 | 0.00 | 0.00 | 0.00 | 77 | 1002.6 |
| 20260509213039 | 60 | 196 | 0.0 | 4.3 | 0.00 | 0.00 | 0.00 | 76 | 1002.8 |
| 20260509211545 | 60 | 206 | 1.7 | 4.3 | 0.00 | 0.00 | 0.00 | 75 | 1002.7 |
| 20260509210039 | 60 | 244 | 2.6 | 6.1 | 0.00 | 0.00 | 0.00 | 74 | 1003.1 |
| 20260509204535 | 61 | 242 | 1.7 | 5.2 | 0.00 | 0.00 | 0.00 | 73 | 1003.4 |
| 20260509203034 | 61 | 246 | 0.9 | 9.6 | 0.00 | 0.00 | 0.00 | 74 | 1003.4 |
| 20260509201533 | 61 | 217 | 2.6 | 7.8 | 0.00 | 0.00 | 0.00 | 71 | 1003.4 |
| 20260509200034 | 62 | 196 | 5.2 | 8.7 | 0.00 | 0.00 | 0.00 | 68 | 1003.6 |
| 20260509194531 | 63 | 176 | 4.3 | 13.0 | 0.00 | 0.00 | 0.00 | 68 | 1003.7 |
| 20260509193028 | 64 | 164 | 4.3 | 11.3 | 0.00 | 0.00 | 0.00 | 70 | 1003.7 |
| 20260509191526 | 64 | 193 | 3.5 | 10.4 | 0.00 | 0.00 | 0.00 | 70 | 1004.2 |
| 20260509190024 | 64 | 176 | 4.3 | 13.9 | 0.00 | 0.00 | 0.00 | 69 | 1004.4 |
| 20260509184532 | 63 | 205 | 3.5 | 12.2 | 0.00 | 0.00 | 0.00 | 71 | 1004.5 |
| 20260509183020 | 63 | 230 | 6.1 | 11.3 | 0.00 | 0.00 | 0.00 | 71 | 1004.8 |
| 20260509181517 | 63 | 219 | 2.6 | 10.4 | 0.00 | 0.00 | 0.00 | 74 | 1004.6 |
| 20260509180020 | 63 | 126 | 4.3 | 13.9 | 0.00 | 0.00 | 0.00 | 73 | 1004.9 |
| 20260509174514 | 62 | 245 | 4.3 | 13.0 | 0.00 | 0.00 | 0.00 | 74 | 1005.0 |
| 20260509173012 | 62 | 246 | 4.3 | 11.3 | 0.00 | 0.00 | 0.00 | 73 | 1005.3 |
| 20260509171511 | 62 | 188 | 2.6 | 13.0 | 0.00 | 0.00 | 0.00 | 77 | 1005.6 |
| 20260509170006 | 61 | 182 | 4.3 | 11.3 | 0.00 | 0.00 | 0.00 | 76 | 1005.6 |
| 20260509164503 | 61 | 203 | 4.3 | 10.4 | 0.00 | 0.00 | 0.00 | 77 | 1005.7 |
| 20260509163001 | 60 | 252 | 1.7 | 7.8 | 0.00 | 0.00 | 0.00 | 77 | 1005.9 |
| 20260509161603 | 59 | 186 | 3.5 | 12.2 | 0.00 | 0.00 | 0.00 | 77 | 1006.1 |
| 20260509160100 | 59 | 207 | 0.9 | 10.4 | 0.00 | 0.00 | 0.00 | 78 | 1006.0 |
| 20260509154558 | 59 | 206 | 4.3 | 9.6 | 0.00 | 0.01 | 0.00 | 78 | 1006.1 |
| 20260509153059 | 59 | 242 | 4.3 | 8.7 | 0.00 | 0.01 | 0.00 | 75 | 1006.3 |
| 20260509151557 | 61 | 187 | 3.5 | 8.7 | 0.00 | 0.01 | 0.00 | 77 | 1006.2 |
| 20260509150054 | 59 | 154 | 5.2 | 8.7 | 0.00 | 0.01 | 0.00 | 78 | 1006.2 |
| 20260509144547 | 58 | 198 | 2.6 | 6.1 | 0.00 | 0.01 | 0.00 | 80 | 1006.2 |
| 20260509143050 | 58 | 195 | 1.7 | 7.8 | 0.00 | 0.01 | 0.00 | 83 | 1006.3 |
| 20260509141544 | 56 | 162 | 2.6 | 7.0 | 0.00 | 0.01 | 0.00 | 84 | 1006.3 |
| 20260509140046 | 55 | 143 | 4.3 | 7.0 | 0.00 | 0.01 | 0.00 | 85 | 1006.6 |
| 20260509134533 | 55 | 219 | 0.0 | 6.1 | 0.00 | 0.01 | 0.00 | 86 | 1006.7 |
| 20260509133032 | 54 | 160 | 2.6 | 7.8 | 0.00 | 0.01 | 0.00 | 86 | 1006.7 |
| 20260509131536 | 54 | 167 | 2.6 | 7.0 | 0.00 | 0.01 | 0.00 | 87 | 1006.7 |
| 20260509130026 | 53 | 153 | 1.7 | 8.7 | 0.00 | 0.01 | 0.00 | 90 | 1006.8 |
| 20260509124526 | 52 | 159 | 2.6 | 6.1 | 0.00 | 0.01 | 0.00 | 92 | 1006.9 |
| 20260509123025 | 51 | 175 | 3.5 | 7.0 | 0.00 | 0.01 | 0.00 | 95 | 1007.0 |
| 20260509121517 | 50 | 121 | 2.6 | 7.0 | 0.00 | 0.01 | 0.00 | 97 | 1007.1 |
| 20260509120013 | 50 | 200 | 0.9 | 5.2 | 0.00 | 0.01 | 0.00 | 97 | 1007.1 |
| 20260509114508 | 49 | 139 | 1.7 | 7.0 | 0.00 | 0.03 | 0.00 | 97 | 1007.1 |
| 20260509113006 | 48 | 182 | 0.9 | 4.3 | 0.00 | 0.03 | 0.00 | 97 | 1007.1 |
| 20260509111504 | 48 | 142 | 0.9 | 2.6 | 0.00 | 0.03 | 0.00 | 97 | 1007.0 |
| 20260509110100 | 47 | 188 | 0.9 | 4.3 | 0.00 | 0.03 | 0.00 | 97 | 1007.1 |
| 20260509104559 | 46 | 148 | 0.9 | 4.3 | 0.00 | 0.05 | 0.00 | 97 | 1007.3 |
| 20260509103058 | 44 | 173 | 0.9 | 3.5 | 0.00 | 0.05 | 0.00 | 97 | 1007.2 |
| 20260509101548 | 43 | 184 | 0.0 | 5.2 | 0.00 | 0.05 | 0.00 | 97 | 1007.2 |
| 20260509100104 | 42 | 140 | 0.0 | 3.5 | 0.00 | 0.05 | 0.00 | 97 | 1007.3 |
| 20260509094548 | 42 | 153 | 0.0 | 4.3 | 0.00 | 0.05 | 0.00 | 96 | 1007.2 |
| 20260509093043 | 41 | 156 | 0.0 | 0.9 | 0.00 | 0.05 | 0.00 | 96 | 1007.2 |
| 20260509091541 | 41 | 156 | 0.0 | 1.7 | 0.00 | 0.05 | 0.00 | 96 | 1007.2 |
| 20260509090036 | 40 | 156 | 0.0 | 1.7 | 0.00 | 0.05 | 0.00 | 96 | 1007.2 |
| 20260509084534 | 40 | 156 | 0.0 | 0.0 | 0.00 | 0.05 | 0.00 | 96 | 1007.3 |
| 20260509083041 | 40 | 156 | 0.0 | 0.9 | 0.00 | 0.05 | 0.00 | 95 | 1007.4 |
| 20260509081534 | 40 | 156 | 0.0 | 0.9 | 0.00 | 0.05 | 0.00 | 95 | 1007.5 |
| 20260509080033 | 39 | 156 | 0.0 | 0.9 | 0.00 | 0.05 | 0.00 | 95 | 1007.5 |
| 20260509074527 | 39 | 156 | 0.0 | 0.9 | 0.00 | 0.05 | 0.00 | 95 | 1007.6 |
| 20260509073026 | 39 | 156 | 0.0 | 0.0 | 0.00 | 0.05 | 0.00 | 95 | 1007.8 |
| 20260509071524 | 39 | 156 | 0.0 | 0.9 | 0.00 | 0.05 | 0.00 | 95 | 1007.9 |
| 20260509070022 | 39 | 156 | 0.0 | 1.7 | 0.00 | 0.05 | 0.00 | 94 | 1008.1 |
| 20260509064528 | 39 | 156 | 0.0 | 0.0 | 0.00 | 0.05 | 0.00 | 94 | 1008.1 |
| 20260509063018 | 39 | 156 | 0.0 | 1.7 | 0.00 | 0.05 | 0.00 | 94 | 1008.3 |
| 20260509061532 | 38 | 156 | 0.0 | 0.9 | 0.00 | 0.05 | 0.00 | 93 | 1008.6 |
| 20260509060013 | 38 | 156 | 0.0 | 0.9 | 0.00 | 0.05 | 0.00 | 93 | 1008.6 |
| 20260509054510 | 39 | 156 | 0.0 | 0.0 | 0.00 | 0.05 | 0.00 | 93 | 1008.9 |
| 20260509053023 | 39 | 156 | 0.0 | 0.9 | 0.00 | 0.05 | 0.00 | 93 | 1009.1 |
| 20260509051508 | 39 | 156 | 0.0 | 0.0 | 0.00 | 0.05 | 0.00 | 93 | 1009.3 |
| 20260509050009 | 39 | 156 | 0.0 | 1.7 | 0.00 | 0.05 | 0.00 | 93 | 1009.3 |
| 20260509044504 | 39 | 156 | 0.0 | 0.0 | 0.00 | 0.05 | 0.00 | 92 | 1009.6 |
| 20260509043004 | 39 | 156 | 0.0 | 0.0 | 0.00 | 0.05 | 0.00 | 92 | 1009.6 |
| 20260509041501 | 39 | 156 | 0.0 | 1.7 | 0.00 | 0.05 | 0.00 | 91 | 1009.7 |
| 20260509040100 | 39 | 156 | 0.0 | 0.0 | 0.00 | 0.05 | 0.00 | 89 | 1009.8 |
| 20260509034603 | 39 | 156 | 0.0 | 0.0 | 0.00 | 0.05 | 0.05 | 89 | 1009.9 |
| 20260509033057 | 39 | 156 | 0.0 | 0.0 | 0.00 | 0.05 | 0.05 | 87 | 1010.1 |
| 20260509031557 | 40 | 156 | 0.0 | 0.0 | 0.00 | 0.05 | 0.05 | 86 | 1010.2 |
| 20260509030057 | 40 | 156 | 0.0 | 0.0 | 0.00 | 0.05 | 0.05 | 86 | 1010.3 |
| 20260509024556 | 41 | 156 | 0.0 | 0.0 | 0.00 | 0.05 | 0.05 | 85 | 1010.4 |
| 20260509023055 | 41 | 156 | 0.0 | 0.0 | 0.00 | 0.05 | 0.05 | 83 | 1010.4 |